This is the latest recevied weather packets stored in our database for station/object KA7KDX-4. If no packets are shown the sender has not sent any weather packets the latest 10 day(s).
| Time | Temp. | Humidity | Pressure | Rain* | Wind** | Luminosity | Snow |
|---|---|---|---|---|---|---|---|
| 1777635005 | 7.78° C | 51% | 1017.9 hPa | 0 mm | - | - | - |
| 1777634705 | 7.78° C | 50% | 1017.9 hPa | 0 mm | - | - | - |
| 1777634405 | 7.78° C | 50% | 1017.9 hPa | 0 mm | - | - | - |
| 1777634105 | 7.22° C | 50% | 1018.2 hPa | 0 mm | - | - | - |
| 1777633806 | 6.67° C | 50% | 1018.5 hPa | 0 mm | - | - | - |
| 1777633506 | 6.67° C | 49% | 1018.6 hPa | 0 mm | - | - | - |
| 1777633206 | 6.67° C | 48% | 1018.5 hPa | 0 mm | - | - | - |
| 1777632906 | 7.22° C | 48% | 1018.3 hPa | 0 mm | - | - | - |
| 1777632606 | 7.22° C | 46% | 1018.2 hPa | 0 mm | - | - | - |
| 1777632305 | 6.67° C | 47% | 1018.3 hPa | 0 mm | - | - | - |
| 1777632005 | 6.67° C | 47% | 1018.3 hPa | 0 mm | - | - | - |
| 1777631705 | 6.67° C | 47% | 1018.3 hPa | 0 mm | - | - | - |
| 1777631405 | 6.67° C | 48% | 1018.5 hPa | 0 mm | - | - | - |
| 1777631105 | 6.11° C | 51% | 1018.6 hPa | 0 mm | - | - | - |
| 1777630806 | 6.11° C | 52% | 1018.5 hPa | 0 mm | - | - | - |
| 1777630506 | 6.67° C | 51% | 1018.2 hPa | 0 mm | - | - | - |
| 1777630206 | 7.22° C | 48% | 1017.8 hPa | 0 mm | - | - | - |
| 1777629906 | 7.78° C | 45% | 1017.6 hPa | 0 mm | - | - | - |
| 1777629606 | 7.78° C | 45% | 1017.6 hPa | 0 mm | - | - | - |
| 1777629305 | 7.78° C | 46% | 1017.7 hPa | 0 mm | - | - | - |
| 1777629005 | 7.78° C | 46% | 1017.7 hPa | 0 mm | - | - | - |
| 1777628705 | 7.22° C | 47% | 1017.8 hPa | 0 mm | - | - | - |
| 1777628405 | 6.67° C | 48% | 1018 hPa | 0 mm | - | - | - |
| 1777628105 | 6.67° C | 50% | 1018.1 hPa | 0 mm | - | - | - |
| 1777627806 | 6.67° C | 51% | 1018.1 hPa | 0 mm | - | - | - |
* Rain latest hour (hover to see other rain measurements)
** Current wind speed in m/s (hover to see current wind gust speed)